Terminal Aerodrome Forecast
Issued by NWS

Home | Current Version | Previous Version | Text Only | Print | Product List | Glossary On
Versions: 1 2 3 4 5 6 7 8 9 10 11 12 13 14 15 16 17 18 19 20 21 22 23 24
000
FTUS43 KLOT 252111 AAB
TAFDPA
TAF AMD
KDPA 252111Z 2521/2618 17012KT P6SM VCTS SCT040CB BKN200
      TEMPO 2521/2601 23020G40KT 1SM TSRA SCT030 OVC040CB
     FM260200 18008KT 6SM BR SCT025 BKN120 BKN250 PROB30 2609/2613
      5SM -TSRA BR OVC040CB
     FM261500 22012G17KT P6SM SCT035 BKN250=

USA.gov is the U.S. government's official web portal to all federal, state and local government web resources and services.